Time;durP1;ratioP1;P1;durP2;ratioP2;P2;SDS_P1;SDS_P2;PMS_P1;PMS_P2;Temp;Humidity;BMP_temperature;BMP_pressure;BME280_temperature;BME280_humidity;BME280_pressure;Samples;Min_cycle;Max_cycle;Signal;HPM_P1;HPM_P2
2022/05/14 00:00:24;;;;;;;3.33;2.95;;;;;;;17.14;79.04;100411.38;4468635;32;20142;-65
2022/05/14 00:02:52;;;;;;;3.30;3.00;;;;;;;17.03;80.37;100407.34;4468906;32;20080;-65
2022/05/14 00:05:20;;;;;;;3.00;2.62;;;;;;;16.87;81.26;100407.09;4454298;32;20108;-65
2022/05/14 00:07:50;;;;;;;5.55;2.70;;;;;;;16.76;80.98;100409.28;4468689;32;20458;-65
2022/05/14 00:10:21;;;;;;;3.45;2.90;;;;;;;16.69;81.47;100412.12;4469723;32;20115;-65
2022/05/14 00:13:06;;;;;;;7.35;3.00;;;;;;;16.72;81.46;100412.03;4470896;32;20085;-65
2022/05/14 00:15:42;;;;;;;3.00;2.70;;;;;;;16.77;82.02;100409.22;4470830;32;20161;-65
2022/05/14 00:18:10;;;;;;;4.60;2.97;;;;;;;16.80;81.09;100411.75;4470777;32;20130;-65
2022/05/14 00:20:38;;;;;;;5.47;2.90;;;;;;;16.73;81.95;100412.88;4470926;32;20084;-65
2022/05/14 00:23:06;;;;;;;4.43;3.15;;;;;;;16.68;81.94;100414.88;4470864;32;20118;-65
2022/05/14 00:25:34;;;;;;;3.95;2.65;;;;;;;16.63;81.48;100414.13;4470605;32;20092;-65
2022/05/14 00:28:02;;;;;;;2.62;2.42;;;;;;;16.54;82.06;100417.13;4470723;32;20118;-65
2022/05/14 00:30:31;;;;;;;3.45;3.15;;;;;;;16.49;82.46;100409.31;4470679;32;20103;-65
2022/05/14 00:32:58;;;;;;;5.10;2.90;;;;;;;16.43;83.00;100412.19;4470750;32;20192;-65
2022/05/14 00:35:26;;;;;;;5.25;2.80;;;;;;;16.35;83.56;100416.91;4470776;32;20108;-65
2022/05/14 00:37:54;;;;;;;3.72;3.05;;;;;;;16.36;83.43;100413.31;4470815;32;20100;-65
2022/05/14 00:40:28;;;;;;;3.70;3.25;;;;;;;16.41;83.89;100414.91;4470705;32;20080;-65
2022/05/14 00:42:56;;;;;;;4.28;2.85;;;;;;;16.38;84.87;100412.34;4470709;32;20080;-65
2022/05/14 00:45:23;;;;;;;4.30;3.55;;;;;;;16.46;83.97;100402.31;4470647;32;20092;-65
2022/05/14 00:47:54;;;;;;;3.97;3.40;;;;;;;16.64;83.26;100400.81;4470780;32;20799;-65
2022/05/14 00:50:37;;;;;;;5.35;3.60;;;;;;;16.73;82.76;100392.47;4470510;32;20443;-65
2022/05/14 00:53:09;;;;;;;4.62;3.33;;;;;;;16.81;82.10;100394.00;4470558;32;20565;-65
2022/05/14 00:55:38;;;;;;;7.00;3.40;;;;;;;16.89;81.74;100398.12;4470614;32;20492;-65
2022/05/14 00:58:08;;;;;;;6.85;3.45;;;;;;;16.91;81.58;100393.59;4470582;32;20091;-65
2022/05/14 01:00:36;;;;;;;4.00;3.35;;;;;;;16.90;81.84;100391.88;4470574;32;20111;-65
2022/05/14 01:03:05;;;;;;;3.87;3.00;;;;;;;16.89;81.59;100407.88;4470451;32;20097;-65
2022/05/14 01:05:33;;;;;;;7.30;3.80;;;;;;;16.85;82.28;100401.81;4470355;32;20088;-65
2022/05/14 01:08:02;;;;;;;3.65;3.35;;;;;;;16.79;82.55;100401.19;4470426;32;20117;-65
2022/05/14 01:10:36;;;;;;;4.35;3.35;;;;;;;16.72;83.26;100395.19;4470385;32;20080;-65
2022/05/14 01:13:03;;;;;;;5.37;3.70;;;;;;;16.75;82.98;100400.44;4470590;32;20089;-66
2022/05/14 01:15:40;;;;;;;6.72;3.75;;;;;;;16.73;83.06;100403.09;4470610;32;20096;-65
2022/05/14 01:18:08;;;;;;;7.18;4.05;;;;;;;16.73;83.19;100403.09;4470653;32;20439;-65
2022/05/14 01:20:36;;;;;;;3.92;3.42;;;;;;;16.71;83.47;100391.66;4469945;32;20080;-65
2022/05/14 01:23:09;;;;;;;5.45;3.90;;;;;;;16.71;83.72;100398.75;4470245;32;20107;-65
2022/05/14 01:28:30;;;;;;;5.40;3.95;;;;;;;16.68;83.92;100399.75;4470451;32;20100;-65
2022/05/14 01:31:00;;;;;;;8.18;3.67;;;;;;;16.65;83.99;100385.69;4470272;32;20434;-65
2022/05/14 01:33:29;;;;;;;4.78;4.18;;;;;;;16.59;84.42;100388.59;4470333;32;20084;-65
2022/05/14 01:35:57;;;;;;;8.52;3.92;;;;;;;16.57;84.60;100395.72;4470413;32;20483;-65
2022/05/14 01:38:26;;;;;;;5.28;4.22;;;;;;;16.52;85.11;100387.06;4470408;32;20252;-65
2022/05/14 01:40:53;;;;;;;7.00;4.00;;;;;;;16.47;85.31;100379.25;4470137;32;20358;-65
2022/05/14 01:43:20;;;;;;;8.43;4.62;;;;;;;16.45;85.52;100381.97;4470495;32;20435;-66
2022/05/14 01:45:48;;;;;;;4.90;4.35;;;;;;;16.43;85.60;100383.81;4470134;32;20464;-65
2022/05/14 01:48:16;;;;;;;5.50;4.40;;;;;;;16.39;86.02;100390.16;4470412;32;20567;-65
2022/05/14 01:50:43;;;;;;;6.57;4.53;;;;;;;16.37;86.23;100389.34;4470214;32;20117;-65
2022/05/14 01:53:11;;;;;;;5.75;4.60;;;;;;;16.34;86.46;100383.28;4455797;32;20126;-65
2022/05/14 01:55:38;;;;;;;5.32;4.45;;;;;;;16.30;86.89;100387.84;4455502;32;20105;-65
2022/05/14 01:58:36;;;;;;;4.95;4.45;;;;;;;16.29;86.84;100385.22;4470166;32;20145;-65
2022/05/14 02:00:55;;;;;;;5.12;4.32;;;;;;;16.19;87.57;100382.91;4470132;32;20080;-65
2022/05/14 02:03:22;;;;;;;9.13;4.22;;;;;;;16.18;87.75;100391.81;4470159;32;20127;-65
2022/05/14 02:05:50;;;;;;;4.10;3.70;;;;;;;16.11;88.26;100394.69;4470250;32;20105;-65
2022/05/14 02:08:17;;;;;;;5.82;4.75;;;;;;;16.05;88.37;100398.47;4470256;32;20107;-65
2022/05/14 02:10:44;;;;;;;7.53;5.07;;;;;;;15.99;88.96;100396.87;4470009;32;20076;-65
2022/05/14 02:13:12;;;;;;;5.60;4.32;;;;;;;15.95;89.30;100399.69;4470196;32;20092;-65
2022/05/14 02:15:40;;;;;;;6.93;4.97;;;;;;;15.90;89.65;100393.66;4470243;32;20108;-65
2022/05/14 02:18:08;;;;;;;5.85;5.03;;;;;;;15.87;90.12;100393.78;4470183;32;20448;-66
2022/05/14 02:20:35;;;;;;;6.40;4.72;;;;;;;15.82;90.68;100391.25;4469906;32;20479;-65
2022/05/14 02:23:03;;;;;;;11.98;4.50;;;;;;;15.75;90.58;100395.91;4470111;32;20483;-65
2022/05/14 02:25:31;;;;;;;10.13;5.20;;;;;;;15.68;90.54;100404.13;4469778;32;20563;-65
2022/05/14 02:27:58;;;;;;;5.18;4.75;;;;;;;15.58;91.94;100410.59;4469947;32;20125;-65
2022/05/14 02:30:25;;;;;;;8.15;4.62;;;;;;;15.45;92.69;100416.31;4469873;32;20491;-65
2022/05/14 02:32:53;;;;;;;5.85;4.65;;;;;;;15.29;93.69;100418.56;4468890;32;20088;-65
2022/05/14 02:35:20;;;;;;;5.05;4.20;;;;;;;15.20;94.45;100425.97;4469777;32;20172;-65
2022/05/14 02:37:47;;;;;;;7.55;4.87;;;;;;;15.13;93.94;100424.41;4470118;32;20437;-65
2022/05/14 02:40:14;;;;;;;6.65;5.47;;;;;;;15.10;94.30;100422.72;4469743;32;20081;-65
2022/05/14 02:42:41;;;;;;;7.60;4.28;;;;;;;15.16;95.73;100425.19;4469725;32;20080;-65
2022/05/14 02:45:10;;;;;;;7.95;5.07;;;;;;;15.07;94.76;100428.09;4469744;32;20092;-65
2022/05/14 02:47:37;;;;;;;8.13;5.15;;;;;;;15.07;95.33;100422.81;4469833;32;20130;-65
2022/05/14 02:50:08;;;;;;;7.18;5.10;;;;;;;15.02;96.07;100424.72;4469614;32;20415;-65
2022/05/14 02:52:36;;;;;;;5.85;5.12;;;;;;;15.09;95.72;100425.41;4469843;32;20413;-65
2022/05/14 02:55:05;;;;;;;6.72;5.45;;;;;;;15.19;95.58;100422.41;4469795;32;20498;-65
2022/05/14 02:57:32;;;;;;;7.15;5.93;;;;;;;15.23;95.50;100433.81;4469594;32;20429;-65
2022/05/14 03:00:00;;;;;;;9.27;5.90;;;;;;;15.32;94.31;100432.69;4469728;32;20420;-65
2022/05/14 03:02:28;;;;;;;8.43;6.05;;;;;;;15.25;95.07;100438.16;4469642;32;20155;-65
2022/05/14 03:04:55;;;;;;;7.55;5.70;;;;;;;15.21;94.93;100436.53;4469682;32;20100;-65
2022/05/14 03:07:22;;;;;;;6.50;5.90;;;;;;;15.24;95.90;100436.44;4469789;32;20122;-65
2022/05/14 03:09:50;;;;;;;8.68;6.03;;;;;;;15.26;95.27;100441.69;4469723;32;20088;-65
2022/05/14 03:12:18;;;;;;;6.22;5.53;;;;;;;15.25;95.32;100440.81;4469511;32;20097;-65
2022/05/14 03:14:45;;;;;;;7.43;6.20;;;;;;;15.21;95.65;100436.53;4469444;32;20165;-65
2022/05/14 03:17:12;;;;;;;7.30;6.03;;;;;;;15.21;95.93;100439.19;4469528;32;20104;-65
2022/05/14 03:19:40;;;;;;;8.73;5.75;;;;;;;15.18;96.36;100441.91;4469388;32;20083;-65
2022/05/14 03:22:09;;;;;;;12.85;6.20;;;;;;;15.12;97.16;100444.75;4469361;32;20145;-65
2022/05/14 03:24:37;;;;;;;6.72;5.75;;;;;;;15.15;96.88;100455.28;4469495;32;20530;-65
2022/05/14 03:27:08;;;;;;;8.63;6.03;;;;;;;15.14;96.35;100445.59;4454629;32;20184;-65
2022/05/14 03:29:36;;;;;;;7.37;6.12;;;;;;;15.14;96.29;100450.03;4469618;32;20672;-65
2022/05/14 03:32:04;;;;;;;9.25;5.75;;;;;;;15.15;95.99;100454.41;4469121;32;20084;-65
2022/05/14 03:34:32;;;;;;;7.80;6.00;;;;;;;15.19;96.08;100461.38;4469264;32;20164;-65
2022/05/14 03:37:00;;;;;;;10.10;5.95;;;;;;;15.25;94.88;100455.88;4469385;32;20125;-65
2022/05/14 03:39:27;;;;;;;8.45;5.55;;;;;;;15.28;94.72;100461.97;4469268;32;20088;-65
2022/05/14 03:41:54;;;;;;;7.22;5.62;;;;;;;15.32;94.73;100461.88;4469158;32;20176;-65
2022/05/14 03:44:22;;;;;;;13.25;5.70;;;;;;;15.29;94.88;100460.19;4470012;32;20149;-65
2022/05/14 03:46:49;;;;;;;8.30;5.95;;;;;;;15.34;94.25;100460.94;4470944;32;20096;-65
2022/05/14 03:49:16;;;;;;;9.60;5.72;;;;;;;15.35;94.25;100473.28;4470981;32;20523;-65
2022/05/14 03:51:44;;;;;;;7.85;5.80;;;;;;;15.35;94.53;100472.41;4471132;32;20373;-65
2022/05/14 03:54:11;;;;;;;7.85;5.70;;;;;;;15.40;93.97;100467.81;4471054;32;20136;-65
2022/05/14 03:56:39;;;;;;;8.82;5.37;;;;;;;15.45;93.33;100473.88;4471033;32;20428;-65
2022/05/14 03:59:08;;;;;;;6.00;5.25;;;;;;;15.43;93.79;100473.03;4471167;32;20118;-65
2022/05/14 04:01:36;;;;;;;9.35;5.68;;;;;;;15.50;93.16;100479.91;4471099;32;20539;-65
2022/05/14 04:04:04;;;;;;;11.18;5.47;;;;;;;15.52;92.94;100478.09;4470800;32;20158;-65
2022/05/14 04:06:32;;;;;;;8.05;5.55;;;;;;;15.53;92.94;100487.78;4471001;32;20100;-65
2022/05/14 04:08:59;;;;;;;7.82;5.65;;;;;;;15.56;93.38;100493.00;4470818;32;20102;-65
2022/05/14 04:11:27;;;;;;;6.00;5.40;;;;;;;15.61;92.21;100500.81;4471072;32;20545;-65
2022/05/14 04:13:56;;;;;;;7.45;5.62;;;;;;;15.64;92.37;100501.59;4470949;32;20119;-66
2022/05/14 04:16:24;;;;;;;8.13;6.07;;;;;;;15.68;92.29;100511.25;4470983;32;20150;-65
2022/05/14 04:18:52;;;;;;;10.18;5.80;;;;;;;15.69;92.14;100515.66;4471024;32;20084;-65
2022/05/14 04:21:19;;;;;;;8.85;5.43;;;;;;;15.72;92.89;100519.97;4453841;32;550326;-65
2022/05/14 04:23:46;;;;;;;6.93;4.90;;;;;;;15.77;92.58;100510.97;4470940;32;20108;-65
2022/05/14 04:26:14;;;;;;;6.37;4.93;;;;;;;15.90;91.14;100515.88;4470897;32;20392;-65
2022/05/14 04:28:42;;;;;;;6.53;5.30;;;;;;;16.01;90.06;100521.75;4470945;32;20100;-65
2022/05/14 04:31:09;;;;;;;7.18;5.07;;;;;;;16.11;89.09;100536.44;4470620;32;20101;-65
2022/05/14 04:33:37;;;;;;;6.28;5.53;;;;;;;16.18;87.64;100522.06;4470865;32;20130;-65
2022/05/14 04:36:05;;;;;;;4.85;4.32;;;;;;;16.22;86.65;100518.37;4470655;32;20627;-66
2022/05/14 04:38:33;;;;;;;8.05;4.78;;;;;;;16.36;85.52;100525.00;4470821;32;20421;-65
2022/05/14 04:41:01;;;;;;;7.45;4.62;;;;;;;16.40;85.34;100526.69;4470876;32;20096;-65
2022/05/14 04:43:29;;;;;;;12.10;5.60;;;;;;;16.43;84.99;100530.09;4470790;32;20549;-65
2022/05/14 04:45:56;;;;;;;5.53;4.82;;;;;;;16.46;84.37;100526.44;4470501;32;20448;-65
2022/05/14 04:48:24;;;;;;;6.47;4.65;;;;;;;16.52;83.44;100525.37;4470640;32;20110;-66
2022/05/14 04:50:51;;;;;;;9.68;4.70;;;;;;;16.51;83.74;100532.50;4470774;32;20441;-65
2022/05/14 04:53:18;;;;;;;5.75;4.35;;;;;;;16.50;83.28;100538.72;4470531;32;20105;-65
2022/05/14 04:55:49;;;;;;;13.27;4.87;;;;;;;16.53;82.54;100538.63;4470144;32;20116;-65
2022/05/14 04:58:16;;;;;;;14.05;4.40;;;;;;;16.56;82.57;100535.84;4470538;32;20446;-66
2022/05/14 05:00:46;;;;;;;5.30;4.20;;;;;;;16.62;81.48;100543.62;4470560;32;20089;-65
2022/05/14 05:03:19;;;;;;;4.35;3.92;;;;;;;16.70;81.55;100549.56;4470677;32;20104;-65
2022/05/14 05:05:53;;;;;;;6.43;4.35;;;;;;;16.64;81.95;100555.09;4456542;32;20468;-65
2022/05/14 05:08:22;;;;;;;7.65;4.45;;;;;;;16.70;81.05;100559.34;4456095;32;20111;-66
2022/05/14 05:10:51;;;;;;;4.97;4.05;;;;;;;16.73;80.06;100556.56;4470456;32;20100;-65
2022/05/14 05:13:21;;;;;;;4.72;4.32;;;;;;;16.81;79.67;100559.00;4470411;32;20547;-65
2022/05/14 05:15:49;;;;;;;6.93;4.07;;;;;;;16.91;79.86;100566.59;4470644;32;20084;-65
2022/05/14 05:18:18;;;;;;;7.28;4.05;;;;;;;17.01;77.93;100560.97;4470354;32;20096;-66
2022/05/14 05:20:48;;;;;;;4.05;3.50;;;;;;;17.08;77.03;100566.00;4470254;32;20092;-66
2022/05/14 05:23:19;;;;;;;5.07;4.03;;;;;;;17.10;76.83;100579.25;4470328;32;20092;-66
2022/05/14 05:25:47;;;;;;;4.90;3.90;;;;;;;17.19;76.49;100576.28;4470372;32;20116;-66
2022/05/14 05:28:15;;;;;;;6.57;4.25;;;;;;;17.33;76.51;100597.09;4470317;32;20564;-66
2022/05/14 05:30:42;;;;;;;5.57;3.65;;;;;;;17.42;76.06;100588.72;4470483;32;20126;-66
2022/05/14 05:33:15;;;;;;;6.05;3.80;;;;;;;17.49;75.93;100586.72;4470302;32;20116;-66
2022/05/14 05:35:42;;;;;;;4.97;3.78;;;;;;;17.57;74.73;100590.00;4470298;32;20080;-65
2022/05/14 05:38:10;;;;;;;4.22;3.45;;;;;;;17.63;74.42;100595.97;4470218;32;20463;-66
2022/05/14 05:40:37;;;;;;;4.57;3.75;;;;;;;17.71;74.25;100595.66;4470145;32;20149;-66
2022/05/14 05:43:07;;;;;;;6.62;3.28;;;;;;;17.82;73.99;100598.81;4470198;32;20165;-65
2022/05/14 05:45:35;;;;;;;3.87;3.20;;;;;;;18.04;72.54;100600.66;4470144;32;20101;-66
2022/05/14 05:48:03;;;;;;;4.62;3.60;;;;;;;18.09;70.92;100604.88;4470183;32;20114;-66
2022/05/14 05:50:30;;;;;;;6.43;3.15;;;;;;;18.17;70.57;100609.03;4470410;32;20096;-66
2022/05/14 05:52:58;;;;;;;4.60;3.12;;;;;;;18.25;68.73;100612.25;4470333;32;20449;-66
2022/05/14 05:58:11;;;;;;;3.00;2.70;;;;;;;18.29;65.69;100616.53;4470293;32;20101;-66
2022/05/14 06:00:40;;;;;;;11.55;2.75;;;;;;;18.46;64.67;100621.19;4470276;32;20156;-66
2022/05/14 06:03:07;;;;;;;3.53;2.40;;;;;;;18.58;64.42;100626.87;4470001;32;20116;-66
2022/05/14 06:05:38;;;;;;;2.70;2.47;;;;;;;18.70;63.24;100617.53;4470109;32;20108;-65
2022/05/14 06:08:08;;;;;;;11.10;2.97;;;;;;;18.81;63.01;100617.09;4468873;32;20111;-66
2022/05/14 06:10:35;;;;;;;8.93;3.75;;;;;;;18.97;62.51;100620.84;4470188;32;20569;-66
2022/05/14 06:13:03;;;;;;;3.00;2.72;;;;;;;19.00;61.33;100634.06;4469936;32;20161;-65
2022/05/14 06:15:31;;;;;;;7.78;2.58;;;;;;;19.01;61.76;100630.47;4470038;32;20440;-66
2022/05/14 06:18:02;;;;;;;4.40;2.70;;;;;;;19.07;59.86;100629.34;4469987;32;20143;-66
2022/05/14 06:20:29;;;;;;;6.40;2.55;;;;;;;19.11;60.45;100636.28;4469943;32;20395;-66
2022/05/14 06:23:01;;;;;;;6.97;2.42;;;;;;;19.23;59.88;100624.22;4469958;32;20084;-66
2022/05/14 06:25:28;;;;;;;3.00;2.67;;;;;;;19.29;59.54;100623.91;4469834;32;20092;-66
2022/05/14 06:27:55;;;;;;;4.37;2.30;;;;;;;19.29;60.32;100632.81;4469886;32;20704;-66
2022/05/14 06:30:23;;;;;;;4.03;2.72;;;;;;;19.41;57.34;100628.72;4469869;32;20427;-66
2022/05/14 06:32:50;;;;;;;4.07;2.47;;;;;;;19.45;57.77;100634.81;4469814;32;20823;-66
2022/05/14 06:35:17;;;;;;;7.57;2.53;;;;;;;19.47;58.24;100628.47;4469848;32;20108;-66
2022/05/14 06:37:45;;;;;;;12.82;4.70;;;;;;;19.61;57.34;100629.63;4469717;32;20610;-66
2022/05/14 06:40:12;;;;;;;4.72;2.62;;;;;;;19.74;56.11;100644.22;4469671;32;20118;-66
2022/05/14 06:42:40;;;;;;;7.10;3.25;;;;;;;19.73;55.93;100635.31;4469683;32;20447;-66
2022/05/14 06:45:10;;;;;;;5.00;2.15;;;;;;;19.66;56.95;100638.34;4455604;32;20579;-65
2022/05/14 06:47:38;;;;;;;5.90;1.80;;;;;;;19.75;55.10;100632.56;4469631;32;20497;-66
2022/05/14 06:50:06;;;;;;;5.68;1.65;;;;;;;19.71;51.90;100637.19;4469686;32;20453;-65
2022/05/14 06:52:34;;;;;;;9.32;2.12;;;;;;;19.66;51.08;100646.38;4469503;32;20304;-66
2022/05/14 06:55:02;;;;;;;10.00;1.90;;;;;;;19.65;51.01;100650.00;4469724;32;20100;-66
2022/05/14 06:57:32;;;;;;;7.82;2.05;;;;;;;19.72;50.75;100648.78;4469467;32;20079;-66
2022/05/14 07:00:00;;;;;;;6.53;2.28;;;;;;;19.74;50.94;100647.75;4469941;32;20147;-66
2022/05/14 07:02:28;;;;;;;7.00;1.85;;;;;;;19.73;50.91;100653.19;4469593;32;20497;-66
2022/05/14 07:07:43;;;;;;;13.18;2.20;;;;;;;19.72;50.64;100660.34;4469494;32;20099;-66
2022/05/14 07:10:10;;;;;;;4.18;2.10;;;;;;;19.88;50.53;100651.59;4469443;32;20448;-66
2022/05/14 07:12:37;;;;;;;6.22;1.95;;;;;;;19.92;50.08;100662.06;4469422;32;20518;-66
2022/05/14 07:15:07;;;;;;;8.30;2.00;;;;;;;19.92;50.40;100653.19;4469461;32;20549;-66
2022/05/14 07:17:34;;;;;;;9.38;2.17;;;;;;;19.97;49.12;100665.44;4469362;32;20106;-66
2022/05/14 07:20:01;;;;;;;8.27;2.10;;;;;;;19.97;49.68;100659.22;4468838;32;20126;-66
2022/05/14 07:22:29;;;;;;;9.50;2.03;;;;;;;19.95;49.78;100663.75;4469258;32;20778;-66
2022/05/14 07:24:57;;;;;;;6.65;2.55;;;;;;;20.22;50.38;100656.25;4454270;32;20097;-66
2022/05/14 07:27:24;;;;;;;3.45;2.10;;;;;;;20.38;49.89;100659.91;4469150;32;20087;-66
2022/05/14 07:29:52;;;;;;;8.32;2.12;;;;;;;20.44;49.01;100673.00;4469463;32;20388;-66
2022/05/14 07:32:20;;;;;;;2.80;1.90;;;;;;;20.42;48.09;100676.69;4469164;32;20157;-66
2022/05/14 07:34:47;;;;;;;7.87;2.20;;;;;;;20.35;48.82;100676.09;4469134;32;20100;-66
2022/05/14 07:37:22;;;;;;;4.50;2.22;;;;;;;20.43;49.39;100665.94;4469164;32;20127;-66
2022/05/14 07:40:03;;;;;;;2.97;2.22;;;;;;;20.62;48.37;100673.09;4469203;32;20085;-66
2022/05/14 07:42:53;;;;;;;9.93;1.95;;;;;;;20.90;48.52;100661.88;4468962;32;20085;-66
2022/05/14 07:45:27;;;;;;;10.00;1.90;;;;;;;21.12;47.59;100658.97;4469056;32;20253;-66
2022/05/14 07:47:58;;;;;;;;;;;;;;;21.16;46.05;100665.91;4469260;32;20106;-66
2022/05/14 07:50:26;;;;;;;5.03;1.90;;;;;;;21.26;46.30;100667.16;4468864;32;20323;-66
2022/05/14 07:52:53;;;;;;;7.07;2.33;;;;;;;21.21;45.53;100666.53;4468829;32;20478;-66
2022/05/14 07:55:20;;;;;;;11.38;2.17;;;;;;;21.16;45.07;100666.75;4469138;32;20093;-66
2022/05/14 07:57:48;;;;;;;3.80;2.03;;;;;;;21.05;43.89;100676.31;4468724;32;20103;-66
2022/05/14 08:00:16;;;;;;;6.18;2.20;;;;;;;21.01;44.05;100663.06;4468616;32;20485;-66
2022/05/14 08:02:45;;;;;;;7.03;1.90;;;;;;;21.05;43.64;100666.44;4468770;32;20587;-66
2022/05/14 08:05:14;;;;;;;3.65;1.77;;;;;;;21.09;43.75;100656.44;4468660;32;20093;-66
2022/05/14 08:07:43;;;;;;;4.60;2.00;;;;;;;21.03;42.98;100671.03;4468742;32;20108;-66
2022/05/14 08:10:13;;;;;;;9.23;1.95;;;;;;;21.12;43.85;100669.69;4468666;32;20118;-66
2022/05/14 08:12:43;;;;;;;3.45;1.48;;;;;;;21.30;44.23;100657.16;4468557;32;20123;-66
2022/05/14 08:15:12;;;;;;;12.65;2.15;;;;;;;21.44;43.49;100663.53;4468600;32;20085;-66
2022/05/14 08:17:40;;;;;;;10.63;1.92;;;;;;;21.43;41.18;100661.81;4468603;32;20399;-66
2022/05/14 08:20:08;;;;;;;9.00;2.30;;;;;;;21.41;41.51;100669.09;4468473;32;20100;-66
2022/05/14 08:25:22;;;;;;;8.20;1.98;;;;;;;21.42;41.48;100662.78;4468278;32;20088;-66
2022/05/14 08:27:50;;;;;;;4.95;1.75;;;;;;;21.57;41.50;100654.88;4468286;32;20081;-66
2022/05/14 08:30:24;;;;;;;7.78;2.08;;;;;;;21.75;41.71;100663.75;4468625;32;20127;-66
2022/05/14 08:32:52;;;;;;;5.90;1.67;;;;;;;21.72;40.36;100654.03;4470606;32;20112;-66
2022/05/14 08:35:20;;;;;;;10.93;1.75;;;;;;;21.90;40.82;100662.91;4470577;32;20087;-66
2022/05/14 08:37:52;;;;;;;18.67;2.67;;;;;;;21.71;39.35;100668.41;4470456;32;20080;-66
2022/05/14 08:40:25;;;;;;;9.02;2.08;;;;;;;21.61;39.91;100651.94;4456349;32;20156;-66
2022/05/14 08:42:59;;;;;;;6.85;1.90;;;;;;;21.79;39.92;100659.94;4470578;32;20150;-66
2022/05/14 08:45:30;;;;;;;10.93;1.50;;;;;;;22.04;38.57;100659.47;4470573;32;20104;-66
2022/05/14 08:48:17;;;;;;;4.57;1.60;;;;;;;22.00;38.83;100656.09;4470606;32;20107;-66
2022/05/14 08:50:54;;;;;;;1.98;1.60;;;;;;;21.85;38.60;100660.47;4470447;32;20110;-66
2022/05/14 08:53:24;;;;;;;6.12;1.52;;;;;;;22.00;39.45;100657.91;4470544;32;20119;-66
2022/05/14 08:56:21;;;;;;;3.10;1.95;;;;;;;22.11;38.44;100666.22;4470770;32;20170;-66
2022/05/14 08:59:26;;;;;;;4.68;1.75;;;;;;;22.23;38.04;100659.38;4463595;32;20084;-66
2022/05/14 09:02:00;;;;;;;8.65;1.92;;;;;;;22.51;36.97;100666.69;4467441;32;20172;-66
2022/05/14 09:04:31;;;;;;;6.47;1.65;;;;;;;22.36;36.13;100655.88;4470379;32;20501;-66
2022/05/14 09:06:58;;;;;;;3.37;1.45;;;;;;;22.46;37.43;100652.69;4470484;32;20535;-66
2022/05/14 09:09:26;;;;;;;5.68;1.85;;;;;;;22.66;36.75;100657.78;4470513;32;20462;-66
2022/05/14 09:11:57;;;;;;;10.63;1.87;;;;;;;22.57;35.99;100669.03;4470410;32;20161;-66
2022/05/14 09:14:26;;;;;;;2.42;1.33;;;;;;;22.47;36.27;100651.72;4470387;32;20151;-66
2022/05/14 09:17:12;;;;;;;9.20;2.10;;;;;;;22.46;36.49;100655.38;4470273;32;20123;-66
2022/05/14 09:19:43;;;;;;;9.27;1.95;;;;;;;22.83;36.61;100660.34;4470293;32;20356;-66
2022/05/14 09:22:30;;;;;;;3.35;1.90;;;;;;;22.98;36.43;100665.81;4470325;32;20424;-66
2022/05/14 09:25:06;;;;;;;7.57;1.85;;;;;;;22.93;36.15;100662.50;4470118;32;20097;-66
2022/05/14 09:27:37;;;;;;;4.30;1.47;;;;;;;22.93;36.22;100644.56;4470469;32;20101;-66
2022/05/14 09:30:07;;;;;;;6.45;1.70;;;;;;;23.29;35.74;100651.41;4470633;32;20405;-66
2022/05/14 09:32:42;;;;;;;11.15;1.70;;;;;;;23.40;34.43;100651.63;4455926;32;20147;-66
2022/05/14 09:35:12;;;;;;;3.73;1.90;;;;;;;23.19;34.38;100661.84;4470515;32;20146;-66
2022/05/14 09:38:11;;;;;;;11.35;2.10;;;;;;;23.03;35.55;100658.34;4470323;32;20657;-66
2022/05/14 09:40:40;;;;;;;6.90;1.70;;;;;;;23.32;35.62;100659.25;4470322;32;20377;-66
2022/05/14 09:43:16;;;;;;;12.32;1.80;;;;;;;23.29;34.71;100663.03;4470186;32;20155;-66
2022/05/14 09:46:00;;;;;;;4.57;1.70;;;;;;;23.43;35.85;100639.78;4470254;32;20089;-66
2022/05/14 09:48:49;;;;;;;3.20;1.83;;;;;;;23.55;34.63;100644.44;4470403;32;20538;-66
2022/05/14 09:51:33;;;;;;;9.45;2.08;;;;;;;23.37;34.79;100635.66;4470592;32;20524;-66
2022/05/14 09:54:09;;;;;;;3.72;1.75;;;;;;;23.54;34.53;100645.41;4470352;32;20345;-66
2022/05/14 09:56:50;;;;;;;11.02;2.08;;;;;;;23.62;33.70;100641.25;4470424;32;20092;-66
2022/05/14 09:59:43;;;;;;;6.90;1.62;;;;;;;24.08;34.18;100632.12;4470373;32;20531;-66
2022/05/14 10:02:47;;;;;;;7.87;2.10;;;;;;;23.80;32.75;100635.72;4420117;32;20109;-66
2022/05/14 10:05:18;;;;;;;2.62;1.37;;;;;;;23.87;33.39;100633.50;4470224;32;20348;-66
2022/05/14 10:07:45;;;;;;;5.47;1.75;;;;;;;24.43;32.47;100643.34;4470096;32;20092;-66
2022/05/14 10:10:48;;;;;;;6.47;1.65;;;;;;;24.15;32.61;100646.94;4470020;32;20105;-66
2022/05/14 10:13:40;;;;;;;3.72;1.90;;;;;;;23.77;34.32;100633.22;4467391;32;20126;-66
2022/05/14 10:16:19;;;;;;;5.37;1.80;;;;;;;23.54;33.60;100621.19;4470236;32;20088;-66
2022/05/14 10:19:11;;;;;;;2.65;1.73;;;;;;;23.99;33.87;100625.53;4470084;32;20478;-66
2022/05/14 10:21:43;;;;;;;9.68;2.00;;;;;;;24.27;34.21;100626.41;4470133;32;20156;-66
2022/05/14 10:27:18;;;;;;;6.80;1.90;;;;;;;24.38;31.68;100631.09;4470030;32;20096;-66
2022/05/14 10:29:54;;;;;;;4.05;1.80;;;;;;;24.39;32.43;100631.03;4470037;32;20111;-66
2022/05/14 10:32:24;;;;;;;;;;;;;;;24.50;32.33;100623.13;4470345;32;20493;-66
2022/05/14 10:35:08;;;;;;;5.30;1.75;;;;;;;24.68;32.49;100615.66;4469934;32;20035;-66
2022/05/14 10:37:47;;;;;;;5.25;2.03;;;;;;;25.00;31.90;100626.06;4470164;32;20102;-66
2022/05/14 10:40:34;;;;;;;4.18;1.85;;;;;;;25.18;31.46;100622.16;4469831;32;20506;-66
2022/05/14 10:43:07;;;;;;;9.85;2.40;;;;;;;25.45;31.73;100621.22;4469973;32;20153;-66
2022/05/14 10:45:44;;;;;;;11.32;2.70;;;;;;;25.38;31.69;100619.91;4469861;32;20100;-66
2022/05/14 10:48:14;;;;;;;7.50;3.15;;;;;;;25.70;31.42;100612.22;4469886;32;20131;-66
2022/05/14 10:50:43;;;;;;;8.23;3.53;;;;;;;25.68;31.48;100604.22;4469719;32;20754;-66
2022/05/14 10:53:11;;;;;;;3.97;2.87;;;;;;;25.66;30.85;100608.88;4468930;32;20103;-66
2022/05/14 10:56:08;;;;;;;5.28;1.85;;;;;;;25.36;29.98;100605.66;4469688;32;20119;-66
2022/05/14 10:58:59;;;;;;;9.35;1.80;;;;;;;24.93;29.93;100608.59;4469687;32;20523;-66
2022/05/14 11:01:43;;;;;;;3.50;1.50;;;;;;;25.56;30.61;100596.16;4469733;32;20435;-66
2022/05/14 11:04:23;;;;;;;3.65;2.03;;;;;;;25.82;29.40;100605.12;4469615;32;20493;-66
2022/05/14 11:06:56;;;;;;;2.30;1.90;;;;;;;25.68;29.68;100606.94;4469549;32;20548;-66
2022/05/14 11:09:29;;;;;;;5.25;2.00;;;;;;;25.65;29.97;100601.75;4469594;32;20466;-66
2022/05/14 11:11:59;;;;;;;11.35;2.15;;;;;;;25.55;29.19;100595.31;4469489;32;20085;-66
2022/05/14 11:14:57;;;;;;;7.00;2.17;;;;;;;25.56;29.88;100602.41;4469413;32;20586;-66
2022/05/14 11:17:34;;;;;;;6.55;2.15;;;;;;;25.59;29.74;100613.00;4454015;32;20079;-66
2022/05/14 11:20:01;;;;;;;6.28;2.30;;;;;;;25.89;29.69;100604.56;4469398;32;20155;-67
2022/05/14 11:22:34;;;;;;;9.50;1.73;;;;;;;26.12;28.75;100600.19;4469267;32;20100;-66
2022/05/14 11:25:24;;;;;;;6.28;2.85;;;;;;;26.76;28.35;100599.94;4469351;32;20112;-66
2022/05/14 11:27:59;;;;;;;13.70;2.20;;;;;;;26.78;27.86;100625.00;4469350;32;20221;-66
2022/05/14 11:30:40;;;;;;;7.37;1.80;;;;;;;27.07;28.85;100586.78;4469219;32;20502;-66
2022/05/14 11:33:26;;;;;;;10.25;2.15;;;;;;;27.35;27.45;100596.31;4469276;32;20459;-66
2022/05/14 11:36:16;;;;;;;5.87;2.30;;;;;;;28.40;26.85;100597.78;4469210;32;20089;-66
2022/05/14 11:38:51;;;;;;;9.40;1.98;;;;;;;29.37;25.32;100593.16;4454587;32;20190;-66
2022/05/14 11:41:31;;;;;;;6.22;1.60;;;;;;;29.52;23.86;100580.06;4469111;32;20421;-66
2022/05/14 11:43:58;;;;;;;4.62;1.80;;;;;;;29.88;23.34;100578.66;4469157;32;20089;-66
2022/05/14 11:46:25;;;;;;;7.00;2.05;;;;;;;29.06;24.32;100584.09;4468939;32;20092;-66
2022/05/14 11:49:14;;;;;;;9.82;1.90;;;;;;;28.82;26.09;100584.31;4469148;32;20110;-66
2022/05/14 11:52:08;;;;;;;5.07;2.47;;;;;;;29.56;23.73;100575.22;4469086;32;20076;-66
2022/05/14 11:54:56;;;;;;;8.73;2.45;;;;;;;29.35;23.58;100576.13;4468953;32;20097;-66
2022/05/14 11:57:32;;;;;;;7.82;1.87;;;;;;;29.23;23.56;100574.50;4468849;32;20516;-66